Time;durP1;ratioP1;P1;durP2;ratioP2;P2;SDS_P1;SDS_P2;PMS_P1;PMS_P2;Temp;Humidity;BMP_temperature;BMP_pressure;BME280_temperature;BME280_humidity;BME280_pressure;Samples;Min_cycle;Max_cycle;Signal;HPM_P1;HPM_P2
2023/12/24 00:00:03;;;;;;;0.10;0.10;;;;;;;12.71;38.61;100320.72;4801209;29;20405;-86
2023/12/24 00:02:29;;;;;;;0.10;0.10;;;;;;;12.75;38.86;100287.41;4801864;29;20591;-89
2023/12/24 00:04:55;;;;;;;0.10;0.10;;;;;;;12.50;39.06;100304.81;4803170;29;20413;-89
2023/12/24 00:07:25;;;;;;;0.30;0.30;;;;;;;12.50;39.17;100307.47;4789687;29;20393;-88
2023/12/24 00:09:53;;;;;;;0.30;0.30;;;;;;;12.66;39.07;100298.38;4798348;29;20481;-87
2023/12/24 00:12:19;;;;;;;0.10;0.10;;;;;;;12.62;39.02;100301.44;4797551;29;20450;-86
2023/12/24 00:14:44;;;;;;;0.10;0.10;;;;;;;12.59;39.09;100298.34;4805334;29;21520;-88
2023/12/24 00:17:13;;;;;;;0.10;0.10;;;;;;;12.55;39.15;100305.88;4784501;29;20434;-88
2023/12/24 00:19:42;;;;;;;0.20;0.20;;;;;;;12.69;39.08;100309.44;4792364;29;20477;-87
2023/12/24 00:22:11;;;;;;;0.10;0.10;;;;;;;12.58;39.18;100302.81;4775783;30;21050;-90
2023/12/24 00:24:37;;;;;;;0.32;0.30;;;;;;;12.74;39.13;100312.34;4789970;29;20487;-90
2023/12/24 00:27:03;;;;;;;0.70;0.50;;;;;;;12.81;38.97;100318.53;4783350;29;20422;-88
2023/12/24 00:29:29;;;;;;;0.30;0.30;;;;;;;12.57;39.45;100317.13;4787342;29;20433;-88
2023/12/24 00:31:54;;;;;;;0.20;0.20;;;;;;;12.58;39.64;100316.09;4786706;29;20463;-88
2023/12/24 00:34:20;;;;;;;0.30;0.30;;;;;;;12.56;39.46;100327.97;4801582;29;20408;-89
2023/12/24 00:36:45;;;;;;;0.10;0.10;;;;;;;12.61;39.43;100344.16;4798136;29;20495;-89
2023/12/24 00:39:11;;;;;;;0.30;0.20;;;;;;;12.71;39.51;100322.53;4783279;29;20468;-89
2023/12/24 00:41:51;;;;;;;0.20;0.20;;;;;;;12.50;39.77;100342.84;4772238;30;21101;-89
2023/12/24 00:44:17;;;;;;;0.20;0.20;;;;;;;12.64;39.80;100375.69;4790272;29;20413;-88
2023/12/24 00:46:44;;;;;;;0.30;0.30;;;;;;;12.33;40.09;100365.38;4796447;29;20426;-88
2023/12/24 01:37:45;;;;;;;2.53;0.93;;;;;;;12.27;41.18;100472.47;1266089;24;20722;-89
2023/12/24 01:40:13;;;;;;;0.40;0.40;;;;;;;12.10;41.38;100478.00;4764081;29;20453;-89
2023/12/24 01:42:42;;;;;;;0.40;0.40;;;;;;;12.15;41.62;100483.53;4767683;30;20434;-88
2023/12/24 01:45:10;;;;;;;0.20;0.20;;;;;;;12.28;41.20;100485.56;4752583;30;20967;-89
2023/12/24 01:47:35;;;;;;;0.52;0.50;;;;;;;12.33;40.91;100495.63;4752262;30;20417;-88
2023/12/24 01:50:09;;;;;;;0.10;0.10;;;;;;;12.21;41.21;100495.28;4766863;30;20434;-88
2023/12/24 01:52:35;;;;;;;0.10;0.10;;;;;;;12.33;40.90;100507.06;4768514;30;20398;-89
2023/12/24 01:55:01;;;;;;;0.10;0.10;;;;;;;12.09;41.28;100510.06;4767335;30;20410;-88
2023/12/24 01:57:33;;;;;;;0.20;0.20;;;;;;;12.14;41.60;100511.16;4755171;30;20417;-90
2023/12/24 01:59:59;;;;;;;0.20;0.20;;;;;;;12.08;41.54;100503.91;4759354;30;20435;-90
2023/12/24 02:02:31;;;;;;;0.37;0.37;;;;;;;12.05;41.50;100507.75;4788807;29;20452;-87
2023/12/24 02:04:57;;;;;;;0.10;0.10;;;;;;;12.00;42.03;100520.75;4758776;30;20424;-89
2023/12/24 02:07:28;;;;;;;0.17;0.17;;;;;;;11.93;42.34;100527.00;4768569;30;20433;-89
2023/12/24 02:09:54;;;;;;;0.20;0.20;;;;;;;11.77;42.47;100512.03;4770121;30;20421;-89
2023/12/24 02:12:22;;;;;;;1.00;0.30;;;;;;;11.86;42.32;100517.06;4758438;30;20478;-89
2023/12/24 02:14:50;;;;;;;0.20;0.20;;;;;;;11.94;42.28;100516.19;4761760;30;20443;-90
2023/12/24 02:17:17;;;;;;;0.30;0.30;;;;;;;11.69;42.67;100497.03;4766387;30;20434;-87
2023/12/24 02:19:43;;;;;;;0.20;0.20;;;;;;;11.78;42.56;100511.88;4773013;30;20410;-87
2023/12/24 02:22:11;;;;;;;0.40;0.38;;;;;;;11.58;42.82;100497.50;4772765;30;20417;-85
2023/12/24 02:24:51;;;;;;;0.20;0.20;;;;;;;11.75;42.31;100500.78;4777811;30;20772;-86
2023/12/24 02:27:45;;;;;;;0.20;0.20;;;;;;;11.88;42.42;100502.78;4772309;30;20430;-88
2023/12/24 02:30:18;;;;;;;0.30;0.30;;;;;;;11.88;42.41;100502.78;4784927;30;20422;-86
2023/12/24 02:32:46;;;;;;;0.22;0.22;;;;;;;11.87;42.14;100507.28;4765599;30;20504;-86
2023/12/24 02:35:40;;;;;;;0.20;0.20;;;;;;;11.75;42.66;100514.06;4770566;30;20914;-87
2023/12/24 02:38:09;;;;;;;1.20;0.80;;;;;;;11.66;42.49;100524.75;4767805;30;20433;-87
2023/12/24 02:40:39;;;;;;;0.30;0.30;;;;;;;11.66;42.63;100516.78;4763445;30;20418;-86
2023/12/24 02:43:05;;;;;;;0.27;0.27;;;;;;;11.75;42.61;100512.22;4769076;30;20406;-87
2023/12/24 02:45:30;;;;;;;0.30;0.30;;;;;;;11.65;42.78;100520.47;4771036;30;20413;-87
2023/12/24 02:48:06;;;;;;;0.30;0.30;;;;;;;11.59;42.76;100515.06;4782066;30;20497;-86
2023/12/24 02:50:34;;;;;;;0.10;0.10;;;;;;;11.55;42.85;100535.81;4770179;30;21008;-86
2023/12/24 02:53:06;;;;;;;1.10;0.70;;;;;;;11.32;43.28;100498.72;4781565;30;20425;-86
2023/12/24 02:55:32;;;;;;;0.25;0.25;;;;;;;11.51;43.01;100515.16;4771534;30;20425;-86
2023/12/24 02:57:58;;;;;;;0.70;0.40;;;;;;;11.57;42.93;100506.44;4771626;30;20406;-88
2023/12/24 03:00:24;;;;;;;0.30;0.30;;;;;;;11.46;43.17;100519.16;4777871;30;20414;-87
2023/12/24 03:02:49;;;;;;;0.20;0.20;;;;;;;11.48;43.12;100522.44;4784714;30;20421;-87
2023/12/24 03:05:18;;;;;;;0.22;0.22;;;;;;;11.49;43.21;100517.97;4784342;30;20409;-86
2023/12/24 03:07:44;;;;;;;0.20;0.20;;;;;;;11.52;43.05;100525.56;4779417;30;20414;-86
2023/12/24 03:10:12;;;;;;;0.63;0.30;;;;;;;11.62;42.89;100547.38;4769897;30;20417;-86
2023/12/24 03:12:37;;;;;;;0.40;0.40;;;;;;;11.58;43.28;100538.13;4778148;30;20427;-87
2023/12/24 03:15:11;;;;;;;0.40;0.30;;;;;;;11.53;42.69;100540.50;4784108;30;20845;-86
2023/12/24 03:17:45;;;;;;;0.50;0.40;;;;;;;11.51;42.92;100555.78;4778601;30;20520;-86
2023/12/24 03:20:10;;;;;;;0.30;0.30;;;;;;;11.60;43.02;100560.00;4770910;30;20833;-87
2023/12/24 03:22:36;;;;;;;0.40;0.40;;;;;;;11.45;43.12;100548.50;4777918;30;20418;-88
2023/12/24 03:25:04;;;;;;;0.40;0.40;;;;;;;11.52;43.28;100549.44;4769344;30;20417;-87
2023/12/24 03:27:33;;;;;;;0.30;0.30;;;;;;;11.50;43.46;100561.25;4778031;30;20849;-87
2023/12/24 03:29:58;;;;;;;0.25;0.25;;;;;;;11.58;43.05;100555.91;4782798;30;20426;-85
2023/12/24 03:32:26;;;;;;;0.60;0.30;;;;;;;11.40;43.20;100551.72;4761396;30;20413;-86
2023/12/24 03:34:55;;;;;;;0.60;0.50;;;;;;;11.52;43.45;100522.91;4768422;30;20491;-85
2023/12/24 03:37:23;;;;;;;0.45;0.30;;;;;;;11.47;43.19;100536.72;4782785;30;20418;-87
2023/12/24 03:39:49;;;;;;;0.20;0.20;;;;;;;11.46;43.27;100537.72;4782585;29;20426;-86
2023/12/24 03:42:14;;;;;;;0.30;0.30;;;;;;;11.61;43.08;100547.53;4768936;30;20933;-85
2023/12/24 03:44:42;;;;;;;0.13;0.13;;;;;;;11.59;43.16;100534.44;4780202;30;20445;-87
2023/12/24 03:47:08;;;;;;;0.10;0.10;;;;;;;11.54;42.91;100557.22;4770106;30;20467;-87
2023/12/24 03:49:34;;;;;;;0.10;0.10;;;;;;;11.54;43.01;100543.97;4789215;30;20399;-87
2023/12/24 03:52:02;;;;;;;0.23;0.23;;;;;;;11.48;43.37;100564.09;4800171;30;20467;-88
2023/12/24 03:54:28;;;;;;;0.20;0.20;;;;;;;11.36;43.51;100557.56;4788909;30;20961;-87
2023/12/24 03:56:54;;;;;;;0.20;0.20;;;;;;;11.43;43.43;100554.03;4784153;30;20407;-88
2023/12/24 03:59:19;;;;;;;0.10;0.10;;;;;;;11.39;43.28;100575.78;4784067;30;20902;-86
2023/12/24 04:01:47;;;;;;;0.10;0.10;;;;;;;11.35;43.49;100590.44;4764850;30;20476;-86
2023/12/24 04:04:13;;;;;;;0.20;0.20;;;;;;;11.46;43.11;100584.69;4776339;30;20493;-86
2023/12/24 04:06:45;;;;;;;0.20;0.20;;;;;;;11.59;42.91;100578.75;4769066;30;20497;-86
2023/12/24 04:09:11;;;;;;;0.10;0.10;;;;;;;11.66;42.80;100598.28;4767406;30;20414;-86
2023/12/24 04:11:37;;;;;;;0.20;0.20;;;;;;;11.68;42.74;100596.25;4792794;30;20510;-86
2023/12/24 04:14:02;;;;;;;0.20;0.20;;;;;;;11.68;42.93;100612.19;4788857;30;20418;-87
2023/12/24 04:16:28;;;;;;;0.20;0.20;;;;;;;11.55;42.94;100606.69;4778355;30;20410;-87
2023/12/24 04:18:54;;;;;;;0.10;0.10;;;;;;;11.64;42.91;100614.38;4786250;30;20513;-88
2023/12/24 04:21:19;;;;;;;0.10;0.10;;;;;;;11.50;43.21;100607.22;4770183;30;20414;-86
2023/12/24 04:23:45;;;;;;;0.38;0.38;;;;;;;11.51;43.32;100611.53;4765100;30;20417;-87
2023/12/24 04:26:11;;;;;;;0.10;0.10;;;;;;;11.39;43.28;100619.06;4784674;30;20446;-87
2023/12/24 04:28:36;;;;;;;0.10;0.10;;;;;;;11.44;43.14;100619.38;4779714;30;20787;-87
2023/12/24 04:31:02;;;;;;;0.13;0.13;;;;;;;11.47;43.20;100615.53;4784750;30;20461;-84
2023/12/24 04:33:29;;;;;;;0.20;0.20;;;;;;;11.50;43.13;100624.97;4779604;30;20410;-85
2023/12/24 04:35:55;;;;;;;0.22;0.22;;;;;;;11.45;43.43;100630.81;4770332;30;20420;-85
2023/12/24 04:38:20;;;;;;;0.10;0.10;;;;;;;11.44;43.32;100631.81;4767635;30;20448;-86
2023/12/24 04:40:46;;;;;;;0.20;0.20;;;;;;;11.47;43.46;100634.13;4766640;30;20414;-87
2023/12/24 04:43:12;;;;;;;0.30;0.27;;;;;;;11.35;43.38;100635.53;4784464;30;20461;-86
2023/12/24 04:45:37;;;;;;;0.20;0.20;;;;;;;11.39;43.47;100631.53;4770390;30;20420;-86
2023/12/24 04:48:03;;;;;;;0.17;0.17;;;;;;;11.43;43.17;100644.28;4786310;30;20496;-87
2023/12/24 04:50:29;;;;;;;0.40;0.40;;;;;;;11.43;43.40;100624.84;4784025;29;20856;-86
2023/12/24 04:52:55;;;;;;;0.20;0.20;;;;;;;11.33;43.38;100625.09;4769471;30;20420;-85
2023/12/24 04:55:20;;;;;;;0.30;0.30;;;;;;;11.41;43.43;100635.63;4785020;29;20407;-86
2023/12/24 04:57:46;;;;;;;0.30;0.30;;;;;;;11.52;43.19;100631.75;4769749;30;20574;-86
2023/12/24 05:00:12;;;;;;;0.10;0.10;;;;;;;11.50;43.37;100638.25;4784760;30;20495;-87
2023/12/24 05:02:38;;;;;;;0.10;0.10;;;;;;;11.47;43.18;100631.47;4784891;30;20409;-86
2023/12/24 05:05:04;;;;;;;0.10;0.10;;;;;;;11.45;43.63;100636.09;4769270;30;20404;-87
2023/12/24 05:07:30;;;;;;;0.20;0.20;;;;;;;11.49;43.42;100642.72;4784406;30;20427;-88
2023/12/24 05:09:56;;;;;;;0.20;0.20;;;;;;;11.44;43.49;100655.72;4769549;30;20848;-87
2023/12/24 05:12:24;;;;;;;0.20;0.20;;;;;;;11.49;43.21;100653.34;4770135;30;20951;-87
2023/12/24 05:14:49;;;;;;;0.20;0.20;;;;;;;11.57;43.55;100647.97;4772108;30;20414;-88
2023/12/24 05:17:15;;;;;;;0.20;0.20;;;;;;;11.58;43.39;100665.56;4784397;30;20927;-89
2023/12/24 05:19:44;;;;;;;0.10;0.10;;;;;;;11.56;43.17;100666.72;4779715;30;20418;-91
2023/12/24 05:22:10;;;;;;;0.20;0.20;;;;;;;11.63;43.07;100675.63;4785248;30;20405;-90
2023/12/24 05:24:35;;;;;;;0.20;0.20;;;;;;;11.60;43.22;100674.16;4779227;30;20853;-90
2023/12/24 05:27:01;;;;;;;0.20;0.20;;;;;;;11.54;43.61;100671.38;4784754;30;20483;-90
2023/12/24 05:29:30;;;;;;;0.10;0.10;;;;;;;11.47;43.61;100676.59;4762724;30;20418;-89
2023/12/24 05:31:57;;;;;;;0.10;0.10;;;;;;;11.43;43.69;100680.59;4770160;30;20414;-89
2023/12/24 05:34:23;;;;;;;0.10;0.10;;;;;;;11.42;43.62;100682.41;4783981;30;20408;-90
2023/12/24 05:36:49;;;;;;;0.20;0.13;;;;;;;11.47;43.55;100692.53;4770782;30;20410;-89
2023/12/24 05:39:15;;;;;;;0.10;0.10;;;;;;;11.31;44.14;100688.16;4770968;30;20418;-89
2023/12/24 05:41:45;;;;;;;0.20;0.20;;;;;;;11.49;43.59;100685.22;4778873;30;20479;-88
2023/12/24 05:44:10;;;;;;;0.10;0.10;;;;;;;11.55;43.56;100697.75;4768704;30;21021;-89
2023/12/24 05:46:36;;;;;;;0.10;0.10;;;;;;;11.53;43.66;100688.34;4762733;30;20501;-88
2023/12/24 05:49:02;;;;;;;0.47;0.35;;;;;;;11.59;43.50;100683.13;4782400;30;20410;-87
2023/12/24 05:51:27;;;;;;;0.10;0.10;;;;;;;11.58;43.53;100702.72;4775658;30;20942;-88
2023/12/24 05:53:53;;;;;;;0.10;0.10;;;;;;;11.57;43.48;100698.41;4782608;30;20447;-87
2023/12/24 05:56:18;;;;;;;0.43;0.43;;;;;;;11.47;43.65;100719.88;4782737;30;20414;-87
2023/12/24 05:58:47;;;;;;;0.10;0.10;;;;;;;11.51;43.52;100719.53;4764025;30;20421;-87
2023/12/24 06:01:12;;;;;;;0.10;0.10;;;;;;;11.57;43.39;100702.91;4769515;30;20410;-88
2023/12/24 06:03:44;;;;;;;0.10;0.10;;;;;;;11.59;43.53;100700.88;4777368;30;20497;-89
2023/12/24 06:06:10;;;;;;;0.20;0.20;;;;;;;11.50;43.88;100731.97;4784173;30;20406;-90
2023/12/24 06:08:35;;;;;;;0.40;0.40;;;;;;;11.52;43.49;100722.00;4761028;30;20422;-87
2023/12/24 06:11:01;;;;;;;0.28;0.28;;;;;;;11.44;43.90;100719.41;4767788;30;20440;-86
2023/12/24 06:13:26;;;;;;;0.10;0.10;;;;;;;11.48;43.58;100737.44;4775011;30;20445;-85
2023/12/24 06:15:52;;;;;;;0.13;0.13;;;;;;;11.48;43.76;100747.25;4782775;30;20406;-85
2023/12/24 06:18:21;;;;;;;0.10;0.10;;;;;;;11.46;43.41;100733.34;4774316;30;20418;-84
2023/12/24 06:20:46;;;;;;;0.40;0.40;;;;;;;11.49;43.69;100738.31;4779501;30;20410;-84
2023/12/24 06:23:12;;;;;;;0.40;0.40;;;;;;;11.52;43.87;100732.63;4781340;30;20799;-83
2023/12/24 06:25:38;;;;;;;0.40;0.40;;;;;;;11.42;43.71;100722.25;4776519;30;20440;-84
2023/12/24 06:28:04;;;;;;;0.10;0.10;;;;;;;11.32;43.81;100726.94;4782082;30;20442;-83
2023/12/24 06:30:30;;;;;;;0.10;0.10;;;;;;;11.29;44.01;100712.19;4761186;30;20802;-84
2023/12/24 06:32:55;;;;;;;0.20;0.20;;;;;;;11.31;44.15;100706.72;4769287;30;20413;-87
2023/12/24 06:35:22;;;;;;;0.22;0.22;;;;;;;11.33;44.00;100725.94;4769734;30;20413;-88
2023/12/24 06:37:48;;;;;;;0.10;0.10;;;;;;;11.37;43.76;100732.53;4788546;29;20479;-87
2023/12/24 06:40:14;;;;;;;0.30;0.30;;;;;;;11.29;43.77;100733.44;4789345;30;20430;-86
2023/12/24 06:42:41;;;;;;;0.30;0.30;;;;;;;11.21;44.13;100746.72;4769392;30;20445;-86
2023/12/24 06:45:07;;;;;;;0.20;0.20;;;;;;;11.28;43.92;100737.06;4781223;30;20433;-85
2023/12/24 06:47:32;;;;;;;0.60;0.60;;;;;;;11.33;43.97;100743.72;4769927;30;20445;-85
2023/12/24 06:49:58;;;;;;;0.80;0.60;;;;;;;11.41;43.98;100741.00;4765431;30;20426;-85
2023/12/24 06:52:23;;;;;;;0.40;0.40;;;;;;;11.51;43.73;100754.06;4762214;30;20497;-85
2023/12/24 06:54:49;;;;;;;0.40;0.40;;;;;;;11.45;43.82;100751.09;4783742;30;20504;-85
2023/12/24 06:57:15;;;;;;;0.23;0.23;;;;;;;11.42;44.07;100748.78;4784371;30;20893;-86
2023/12/24 06:59:40;;;;;;;0.30;0.30;;;;;;;11.48;43.90;100749.91;4780031;30;20436;-85
2023/12/24 07:02:07;;;;;;;0.22;0.22;;;;;;;11.58;43.70;100757.66;4769032;30;20414;-84
2023/12/24 07:04:33;;;;;;;0.60;0.60;;;;;;;11.62;43.63;100757.13;4762189;30;20422;-85
2023/12/24 07:06:58;;;;;;;0.20;0.20;;;;;;;11.53;43.67;100746.75;4793449;30;20448;-84
2023/12/24 07:09:25;;;;;;;0.35;0.35;;;;;;;11.52;43.85;100753.84;4776560;30;20468;-88
2023/12/24 07:11:51;;;;;;;0.20;0.20;;;;;;;11.58;43.97;100761.13;4785757;30;20458;-84
2023/12/24 07:14:17;;;;;;;0.50;0.50;;;;;;;11.58;43.60;100749.69;4799285;29;20418;-85
2023/12/24 07:16:42;;;;;;;0.50;0.50;;;;;;;11.61;43.60;100747.53;4799838;29;20434;-87
2023/12/24 07:19:08;;;;;;;0.30;0.30;;;;;;;11.74;43.85;100751.41;4789816;30;20418;-91
2023/12/24 07:21:34;;;;;;;0.10;0.10;;;;;;;11.84;43.83;100746.69;4775156;30;20417;-90
2023/12/24 07:24:00;;;;;;;0.60;0.60;;;;;;;11.91;43.50;100752.16;4783387;30;20433;-90
2023/12/24 07:26:26;;;;;;;0.70;0.70;;;;;;;11.86;43.50;100773.88;4780226;30;20572;-92
2023/12/24 07:28:55;;;;;;;0.70;0.70;;;;;;;11.90;43.30;100761.09;4789565;30;20568;-91
2023/12/24 07:31:20;;;;;;;0.60;0.60;;;;;;;11.71;43.26;100773.81;4787822;30;21040;-92
2023/12/24 07:33:46;;;;;;;0.50;0.50;;;;;;;11.86;43.25;100771.22;4787636;29;20482;-91
2023/12/24 07:36:12;;;;;;;0.10;0.10;;;;;;;11.89;43.13;100783.34;4787008;30;20410;-92
2023/12/24 07:38:37;;;;;;;0.10;0.10;;;;;;;11.82;43.08;100776.06;4783445;30;20434;-90
2023/12/24 07:41:03;;;;;;;0.50;0.50;;;;;;;11.95;43.13;100766.72;4770361;30;20416;-93
2023/12/24 07:43:29;;;;;;;0.20;0.20;;;;;;;12.05;43.08;100765.47;4765069;30;20476;-90
2023/12/24 07:45:55;;;;;;;0.57;0.57;;;;;;;12.03;42.91;100767.50;4771699;30;20431;-90
2023/12/24 07:48:23;;;;;;;0.30;0.30;;;;;;;12.12;42.72;100775.38;4769262;30;20419;-91
2023/12/24 07:50:49;;;;;;;0.50;0.30;;;;;;;12.00;42.62;100777.66;4772979;30;20781;-89
2023/12/24 07:53:15;;;;;;;0.30;0.30;;;;;;;12.15;42.60;100777.69;4756378;30;20411;-91
2023/12/24 07:55:41;;;;;;;0.20;0.20;;;;;;;12.16;42.50;100766.88;4766775;30;20573;-91
2023/12/24 07:58:07;;;;;;;0.20;0.20;;;;;;;12.15;42.46;100786.47;4772581;30;20428;-90
2023/12/24 08:00:34;;;;;;;1.50;1.40;;;;;;;12.32;42.55;100768.59;4752329;30;20420;-91
2023/12/24 08:03:03;;;;;;;0.40;0.40;;;;;;;12.38;42.23;100777.66;4760660;30;20415;-90
2023/12/24 08:05:29;;;;;;;0.50;0.50;;;;;;;12.40;42.25;100783.63;4769351;30;20419;-91
2023/12/24 08:07:55;;;;;;;0.13;0.13;;;;;;;12.56;42.54;100790.63;4774551;30;20458;-90
2023/12/24 08:10:21;;;;;;;0.90;0.90;;;;;;;12.68;42.03;100767.91;4763469;30;20434;-90
2023/12/24 08:12:46;;;;;;;0.20;0.20;;;;;;;12.69;42.39;100769.53;4775711;30;20508;-89
2023/12/24 08:15:12;;;;;;;0.57;0.57;;;;;;;12.71;42.51;100775.53;4791739;29;20407;-90
2023/12/24 08:17:41;;;;;;;0.47;0.47;;;;;;;12.75;42.33;100786.63;4770899;30;20412;-89
2023/12/24 08:20:27;;;;;;;0.55;0.55;;;;;;;12.84;42.20;100774.88;4782957;30;20495;-88
2023/12/24 08:22:53;;;;;;;0.30;0.30;;;;;;;12.77;42.19;100769.47;4777874;30;20894;-90
2023/12/24 08:25:18;;;;;;;0.52;0.52;;;;;;;12.96;41.88;100781.41;4790329;29;20414;-90
2023/12/24 08:27:44;;;;;;;0.30;0.20;;;;;;;13.08;41.90;100794.25;4800640;29;20467;-89
2023/12/24 08:30:10;;;;;;;0.93;0.88;;;;;;;13.04;41.29;100785.78;4810735;29;20483;-89
2023/12/24 08:32:36;;;;;;;0.38;0.38;;;;;;;13.19;41.49;100783.13;4808855;29;20420;-89
2023/12/24 08:35:03;;;;;;;0.20;0.20;;;;;;;13.33;41.43;100790.28;4786293;29;20429;-91
2023/12/24 08:37:29;;;;;;;0.20;0.20;;;;;;;13.38;41.25;100785.22;4794581;30;20514;-90
2023/12/24 08:39:55;;;;;;;0.35;0.35;;;;;;;13.52;40.60;100780.91;4773635;30;20424;-88
2023/12/24 08:42:20;;;;;;;0.30;0.30;;;;;;;13.62;41.02;100795.75;4775399;30;20411;-88
2023/12/24 08:44:46;;;;;;;7.47;5.63;;;;;;;13.70;40.62;100795.63;4777380;30;20412;-90
2023/12/24 08:47:12;;;;;;;0.40;0.40;;;;;;;13.72;40.34;100802.41;4782739;30;20467;-89
2023/12/24 08:49:37;;;;;;;0.47;0.47;;;;;;;13.82;40.58;100803.94;4777414;30;20427;-88
2023/12/24 08:52:04;;;;;;;0.20;0.20;;;;;;;13.83;40.00;100803.75;4775116;30;20419;-89
2023/12/24 08:54:35;;;;;;;0.40;0.40;;;;;;;13.73;39.17;100808.56;4771050;30;24628;-89
2023/12/24 08:57:01;;;;;;;0.38;0.38;;;;;;;13.98;39.68;100811.69;4772050;30;20924;-88
2023/12/24 08:59:27;;;;;;;0.10;0.10;;;;;;;14.10;39.72;100809.38;4785789;30;20489;-88
2023/12/24 09:01:53;;;;;;;0.28;0.20;;;;;;;14.17;39.72;100796.06;4771086;30;20456;-87
2023/12/24 09:04:19;;;;;;;0.28;0.17;;;;;;;14.26;39.39;100811.75;4786478;30;20416;-86
2023/12/24 09:06:45;;;;;;;0.40;0.40;;;;;;;14.38;39.70;100817.38;4782071;30;20411;-89
2023/12/24 09:09:12;;;;;;;0.53;0.53;;;;;;;14.46;39.38;100803.09;4769295;30;20428;-87
2023/12/24 09:11:38;;;;;;;0.30;0.30;;;;;;;14.54;39.07;100808.28;4763719;30;20424;-87
2023/12/24 09:14:04;;;;;;;0.53;0.50;;;;;;;14.66;38.81;100804.09;4767706;30;20517;-89
2023/12/24 09:16:29;;;;;;;0.67;0.60;;;;;;;14.82;38.68;100804.78;4776569;30;20465;-89
2023/12/24 09:18:55;;;;;;;0.30;0.30;;;;;;;14.86;38.41;100784.72;4754831;30;20502;-91
2023/12/24 09:21:21;;;;;;;0.30;0.30;;;;;;;14.89;37.97;100778.97;4768613;30;20507;-90
2023/12/24 09:23:46;;;;;;;1.00;0.30;;;;;;;14.99;37.03;100797.31;4770628;30;20847;-90
2023/12/24 09:26:12;;;;;;;0.20;0.20;;;;;;;15.08;37.25;100804.13;4757282;30;20430;-89
2023/12/24 09:28:38;;;;;;;0.40;0.40;;;;;;;15.20;36.96;100805.22;4781840;30;20495;-89
2023/12/24 09:31:03;;;;;;;0.23;0.23;;;;;;;15.23;36.31;100794.16;4785544;30;20423;-91
2023/12/24 09:33:29;;;;;;;0.40;0.40;;;;;;;15.23;36.60;100804.84;4778946;30;20765;-92
2023/12/24 09:35:56;;;;;;;0.40;0.40;;;;;;;15.10;36.29;100807.44;4742597;30;20436;-91
2023/12/24 09:38:22;;;;;;;0.20;0.20;;;;;;;15.25;36.35;100796.63;4757285;30;20447;-91
2023/12/24 09:40:49;;;;;;;0.30;0.30;;;;;;;15.27;36.51;100795.41;4747609;30;20502;-89
2023/12/24 09:43:14;;;;;;;0.10;0.10;;;;;;;15.22;36.44;100791.69;4759050;30;20429;-91
2023/12/24 09:45:40;;;;;;;0.33;0.33;;;;;;;15.27;36.56;100778.56;4765744;30;20467;-89
2023/12/24 09:48:06;;;;;;;0.40;0.30;;;;;;;15.46;35.94;100788.47;4769528;30;20454;-89
2023/12/24 09:50:31;;;;;;;0.30;0.20;;;;;;;15.49;36.01;100790.75;4762341;30;20436;-90
2023/12/24 09:52:58;;;;;;;0.23;0.20;;;;;;;15.62;35.63;100791.81;4748247;30;20421;-88
2023/12/24 09:55:24;;;;;;;0.50;0.30;;;;;;;15.65;35.85;100796.78;4737730;30;20423;-88
2023/12/24 09:57:50;;;;;;;0.10;0.10;;;;;;;15.45;35.60;100791.38;4752313;30;20418;-89
2023/12/24 10:00:19;;;;;;;0.10;0.10;;;;;;;15.45;36.02;100784.19;4750839;30;20422;-89
2023/12/24 10:02:45;;;;;;;0.10;0.10;;;;;;;15.69;36.16;100781.97;4734806;30;20425;-88
2023/12/24 10:05:14;;;;;;;0.20;0.20;;;;;;;15.79;35.92;100773.59;4730813;30;20426;-88
2023/12/24 10:07:40;;;;;;;0.30;0.30;;;;;;;15.91;36.09;100773.81;4728113;30;20964;-88
2023/12/24 10:10:11;;;;;;;0.10;0.10;;;;;;;15.86;35.57;100764.56;4730138;30;20439;-88
2023/12/24 10:12:36;;;;;;;0.15;0.15;;;;;;;15.91;35.81;100763.94;4715583;30;20481;-89
2023/12/24 10:15:02;;;;;;;0.13;0.13;;;;;;;15.98;35.73;100750.59;4715317;30;20422;-89
2023/12/24 10:17:29;;;;;;;0.20;0.20;;;;;;;15.98;35.50;100746.06;4714476;30;20426;-88
2023/12/24 10:19:59;;;;;;;0.50;0.28;;;;;;;16.02;35.49;100757.97;4701822;30;20444;-89
2023/12/24 10:22:25;;;;;;;0.20;0.20;;;;;;;16.08;35.07;100745.66;4717681;30;20465;-88
2023/12/24 10:25:05;;;;;;;0.30;0.30;;;;;;;15.99;35.25;100729.00;4734370;30;20493;-89
2023/12/24 10:27:39;;;;;;;0.10;0.10;;;;;;;16.03;35.50;100724.06;4734678;30;20562;-89
2023/12/24 10:30:12;;;;;;;0.22;0.22;;;;;;;16.03;35.20;100740.94;4731958;30;20524;-87
2023/12/24 10:32:40;;;;;;;0.30;0.20;;;;;;;16.12;35.04;100727.38;4735213;30;20424;-90
2023/12/24 10:35:06;;;;;;;0.82;0.52;;;;;;;16.29;35.12;100736.59;4745390;30;20393;-90
